Date,TemperatureHighF,TemperatureAvgF,TemperatureLowF,DewpointHighF,DewpointAvgF,DewpointLowF,HumidityHigh,HumidityAvg,HumidityLow,PressureMaxIn,PressureMinIn,WindSpeedMaxMPH,WindSpeedAvgMPH,GustSpeedMaxMPH,PrecipitationSumIn
2013-2-1,73.3,58.2,43.7,52.0,46.9,42.0,93,70,35,30.10,30.02,8,1,0,0.00
2013-2-2,77.1,62.0,51.1,55.0,50.1,42.0,90,68,29,30.12,30.02,3,0,0,0.00
2013-2-3,77.0,62.1,51.5,56.0,52.4,48.0,92,74,38,30.06,29.93,11,1,0,0.00
2013-2-4,66.9,56.3,48.0,57.0,52.3,46.0,95,87,67,30.03,29.91,7,1,0,0.00
2013-2-5,58.5,55.3,53.1,52.0,50.9,50.0,90,85,79,30.04,29.93,6,1,0,0.00
2013-2-6,65.3,56.1,46.5,52.0,49.6,44.0,91,79,61,30.05,29.94,9,1,0,0.00
2013-2-7,63.1,52.4,41.5,53.0,46.5,40.0,95,81,66,30.07,29.93,7,1,0,0.00
2013-2-8,55.5,50.1,40.6,48.0,43.3,39.0,92,78,64,29.93,29.82,11,3,0,0.11
2013-2-9,59.5,46.4,34.7,45.0,39.4,33.0,95,79,50,30.03,29.87,11,1,0,0.00
2013-2-10,59.1,48.2,36.8,47.0,41.8,35.0,94,79,58,30.04,29.95,6,1,0,0.00
2013-2-11,63.3,50.3,38.2,46.0,40.9,35.0,94,73,37,30.17,29.99,7,1,0,0.00
2013-2-12,64.1,50.0,35.9,47.0,40.0,33.0,93,72,37,30.28,30.17,6,1,0,0.00
2013-2-13,68.0,51.7,36.8,48.0,41.3,35.0,94,72,35,30.20,30.06,10,1,0,0.00
2013-2-14,76.9,54.4,38.7,55.0,45.1,37.0,94,74,35,30.14,29.97,6,1,0,0.00
2013-2-15,85.0,61.6,41.8,46.0,37.6,26.0,90,52,13,30.11,30.03,7,1,0,0.00
2013-2-16,83.8,63.2,44.6,37.0,30.5,20.0,64,35,10,30.07,29.90,6,1,0,0.00
2013-2-17,66.3,53.9,41.6,54.0,47.2,36.0,93,78,55,29.96,29.86,9,2,0,0.00
2013-2-18,63.4,56.3,53.7,49.0,47.9,45.0,81,74,59,30.00,29.89,10,2,0,0.00
2013-2-19,59.0,53.2,47.3,48.0,44.1,41.0,91,72,57,29.92,29.65,7,3,0,0.10
2013-2-20,61.7,51.5,41.8,46.0,35.8,30.0,76,57,38,29.92,29.64,11,3,0,0.00
2013-2-21,64.5,51.0,40.7,45.0,41.1,36.0,88,71,38,30.02,29.90,5,1,0,0.00
2013-2-22,64.5,50.7,37.2,50.0,43.1,35.0,94,77,54,30.13,30.02,9,1,0,0.00
2013-2-23,64.5,52.0,38.5,50.0,44.4,37.0,94,77,50,30.09,29.86,10,1,0,0.00
2013-2-24,71.1,55.2,41.3,46.0,32.4,16.0,95,53,13,30.13,29.91,5,1,0,0.01
2013-2-25,68.0,52.7,37.1,47.0,37.5,28.0,85,61,23,30.15,30.00,10,1,0,0.00
2013-2-26,71.5,53.7,37.6,52.0,42.7,35.0,93,70,27,30.03,29.91,10,1,0,0.00
2013-2-27,78.0,59.4,42.1,43.0,32.1,20.0,85,45,13,30.18,30.03,5,1,0,0.00
2013-2-28,82.3,59.8,40.7,41.0,31.9,19.0,78,44,10,30.23,30.16,5,1,0,0.00